createdAt,value
2022-09-23T00:00:13.894Z,18.17
2022-09-23T00:02:41.047Z,18.57
2022-09-23T00:05:08.826Z,18.27
2022-09-23T00:07:35.939Z,18.20
2022-09-23T00:15:33.833Z,16.73
2022-09-23T00:18:00.893Z,17.70
2022-09-23T00:20:28.363Z,22.17
2022-09-23T00:22:56.690Z,18.10
2022-09-23T00:25:23.775Z,15.30
2022-09-23T00:27:50.816Z,20.00
2022-09-23T00:30:18.450Z,15.47
2022-09-23T00:32:45.508Z,18.03
2022-09-23T00:35:12.577Z,17.97
2022-09-23T00:37:39.707Z,19.70
2022-09-23T00:40:08.630Z,19.43
2022-09-23T00:42:35.794Z,17.03
2022-09-23T00:45:02.869Z,18.50
2022-09-23T00:47:32.840Z,17.27
2022-09-23T00:50:02.816Z,18.90
2022-09-23T00:52:30.029Z,15.97
2022-09-23T00:54:58.831Z,18.97
2022-09-23T00:57:26.414Z,16.87
2022-09-23T00:59:53.546Z,20.53
2022-09-23T01:02:23.952Z,21.83
2022-09-23T01:04:51.637Z,20.57
2022-09-23T01:07:18.960Z,20.33
2022-09-23T01:09:47.289Z,20.80
2022-09-23T01:12:27.298Z,19.23
2022-09-23T01:14:57.334Z,18.90
2022-09-23T01:17:31.155Z,18.13
2022-09-23T01:20:04.528Z,20.17
2022-09-23T01:22:50.657Z,18.30
2022-09-23T01:25:20.756Z,18.03
2022-09-23T01:27:53.824Z,18.20
2022-09-23T01:30:36.295Z,19.97
2022-09-23T01:33:08.821Z,21.53
2022-09-23T01:35:59.045Z,19.40
2022-09-23T01:38:51.173Z,18.27
2022-09-23T01:41:27.552Z,18.80
2022-09-23T01:44:05.059Z,21.57
2022-09-23T01:46:44.517Z,19.37
2022-09-23T01:49:11.570Z,19.07
2022-09-23T01:51:41.364Z,18.90
2022-09-23T01:54:15.877Z,18.57
2022-09-23T01:56:51.790Z,23.13
2022-09-23T01:59:26.597Z,20.53
2022-09-23T02:02:22.868Z,18.73
2022-09-23T02:04:51.460Z,19.50
2022-09-23T02:07:21.397Z,21.53
2022-09-23T02:09:53.738Z,20.97
2022-09-23T02:12:21.865Z,21.97
2022-09-23T02:14:54.822Z,21.80
2022-09-23T02:17:26.385Z,21.40
2022-09-23T02:19:59.209Z,23.23
2022-09-23T02:22:46.577Z,23.37
2022-09-23T02:25:16.247Z,21.50
2022-09-23T02:27:48.201Z,21.33
2022-09-23T02:30:17.851Z,23.07
2022-09-23T02:32:55.027Z,24.77
2022-09-23T02:35:33.004Z,28.03
2022-09-23T02:38:15.547Z,27.57
2022-09-23T02:40:50.951Z,25.87
2022-09-23T02:43:36.166Z,21.77
2022-09-23T02:46:04.541Z,27.10
2022-09-23T02:48:42.360Z,26.27
2022-09-23T02:51:10.415Z,24.67
2022-09-23T02:53:38.058Z,23.20
2022-09-23T02:56:15.538Z,24.00
2022-09-23T02:58:42.785Z,27.67
2022-09-23T03:01:21.952Z,25.23
2022-09-23T03:03:58.324Z,22.17
2022-09-23T03:06:33.447Z,23.73
2022-09-23T03:09:04.259Z,22.37
2022-09-23T03:11:32.965Z,24.27
2022-09-23T03:14:17.483Z,26.17
2022-09-23T03:16:51.464Z,27.57
2022-09-23T03:19:18.598Z,23.13
2022-09-23T03:22:03.671Z,22.93
2022-09-23T03:24:32.794Z,23.70
2022-09-23T03:27:02.047Z,24.20
2022-09-23T03:29:29.275Z,24.37
2022-09-23T03:31:57.264Z,26.87
2022-09-23T03:34:27.297Z,24.83
2022-09-23T03:37:00.806Z,25.33
2022-09-23T03:39:36.976Z,27.63
2022-09-23T03:42:16.818Z,25.10
2022-09-23T03:44:45.418Z,25.37
2022-09-23T03:47:13.845Z,29.23
2022-09-23T03:49:42.124Z,27.97
2022-09-23T03:52:09.617Z,30.80
2022-09-23T03:54:36.680Z,29.43
2022-09-23T03:57:03.811Z,25.73
2022-09-23T03:59:31.334Z,26.23
2022-09-23T04:01:59.549Z,28.00
2022-09-23T04:04:27.664Z,26.93
2022-09-23T04:06:55.241Z,31.57
2022-09-23T04:09:22.564Z,30.20
2022-09-23T04:11:50.680Z,33.47
2022-09-23T04:14:18.784Z,28.47
2022-09-23T04:16:46.462Z,30.77
2022-09-23T04:19:13.894Z,31.17
2022-09-23T04:21:41.619Z,38.30
2022-09-23T04:24:09.074Z,43.73
2022-09-23T04:26:36.514Z,57.10
2022-09-23T04:29:04.856Z,81.03
2022-09-23T04:31:32.919Z,58.57
2022-09-23T04:34:00.341Z,55.03
2022-09-23T04:36:27.835Z,61.60
2022-09-23T04:38:54.950Z,100.30
2022-09-23T04:41:22.006Z,211.83
2022-09-23T04:43:49.366Z,120.97
2022-09-23T04:46:17.149Z,125.13
2022-09-23T04:48:44.740Z,223.37
2022-09-23T04:51:11.817Z,116.50
2022-09-23T04:53:40.218Z,190.50
2022-09-23T04:56:10.070Z,102.93
2022-09-23T04:58:37.248Z,76.80
2022-09-23T05:01:19.531Z,113.43
2022-09-23T05:03:47.235Z,92.63
2022-09-23T05:06:15.209Z,84.00
2022-09-23T05:08:43.201Z,166.53
2022-09-23T05:11:10.296Z,169.73
2022-09-23T05:13:37.435Z,143.20
2022-09-23T05:16:06.674Z,190.83
2022-09-23T05:18:34.774Z,236.67
2022-09-23T05:21:02.520Z,188.67
2022-09-23T05:23:30.213Z,285.10
2022-09-23T05:25:59.062Z,308.67
2022-09-23T05:28:32.753Z,155.17
2022-09-23T05:31:04.383Z,371.77
2022-09-23T05:33:32.134Z,209.50
2022-09-23T05:35:59.240Z,565.63
2022-09-23T05:38:26.390Z,492.97
2022-09-23T05:40:57.661Z,313.17
2022-09-23T05:43:25.004Z,316.63
2022-09-23T05:45:52.607Z,340.90
2022-09-23T05:48:19.751Z,201.77
2022-09-23T05:50:50.591Z,185.20
2022-09-23T05:53:18.242Z,297.07
2022-09-23T05:55:45.940Z,291.83
2022-09-23T05:58:13.600Z,154.37
2022-09-23T06:00:41.496Z,216.27
2022-09-23T06:03:15.175Z,257.13
2022-09-23T06:05:42.431Z,169.07
2022-09-23T06:08:10.059Z,211.30
2022-09-23T06:10:41.560Z,311.93
2022-09-23T06:13:08.960Z,290.13
2022-09-23T06:15:36.717Z,231.90
2022-09-23T06:18:04.326Z,134.10
2022-09-23T06:20:31.414Z,231.73
2022-09-23T06:23:10.805Z,97.10
2022-09-23T06:25:38.580Z,81.07
2022-09-23T06:28:08.172Z,72.67
2022-09-23T06:30:35.281Z,50.10
2022-09-23T06:33:02.447Z,60.03
2022-09-23T06:35:32.458Z,57.17
2022-09-23T06:37:59.840Z,69.33
2022-09-23T06:40:27.065Z,70.23
2022-09-23T06:42:58.399Z,80.17
2022-09-23T06:45:25.983Z,190.50
2022-09-23T06:47:56.850Z,61.73
2022-09-23T06:50:27.781Z,374.80
2022-09-23T06:52:56.079Z,218.17
2022-09-23T06:55:24.501Z,330.93
2022-09-23T06:57:51.711Z,140.70
2022-09-23T07:00:19.276Z,126.87
2022-09-23T07:02:46.531Z,69.30
2022-09-23T07:05:15.628Z,182.77
2022-09-23T07:07:42.743Z,37.00
2022-09-23T07:10:10.737Z,86.27
2022-09-23T07:12:37.838Z,41.57
2022-09-23T07:15:05.316Z,22.93
2022-09-23T07:17:33.201Z,37.57
2022-09-23T07:20:00.273Z,40.10
2022-09-23T07:22:27.382Z,63.53
2022-09-23T07:24:57.665Z,32.83
2022-09-23T07:27:25.810Z,17.00
2022-09-23T07:29:53.249Z,20.47
2022-09-23T07:32:22.038Z,13.63
2022-09-23T07:34:49.349Z,16.00
2022-09-23T07:37:17.245Z,14.83
2022-09-23T07:39:44.733Z,12.27
2022-09-23T07:42:14.256Z,11.37
2022-09-23T07:44:47.713Z,11.23
2022-09-23T07:47:16.130Z,14.63
2022-09-23T07:49:43.255Z,10.80
2022-09-23T07:52:11.013Z,8.90
2022-09-23T07:54:38.137Z,10.40
2022-09-23T07:57:05.244Z,11.15
2022-09-23T07:59:32.349Z,9.07
2022-09-23T08:01:59.617Z,8.32
2022-09-23T08:04:29.159Z,7.90
2022-09-23T08:07:00.898Z,8.68
2022-09-23T08:09:29.311Z,10.93
2022-09-23T08:11:56.683Z,8.40
2022-09-23T08:14:23.842Z,7.47
2022-09-23T08:16:52.194Z,9.15
2022-09-23T08:19:19.550Z,10.80
2022-09-23T08:21:47.995Z,8.45
2022-09-23T08:24:16.761Z,8.52
2022-09-23T08:26:44.360Z,11.60
2022-09-23T08:29:15.560Z,11.43
2022-09-23T08:31:42.658Z,8.60
2022-09-23T08:34:10.044Z,13.25
2022-09-23T08:36:37.142Z,9.30
2022-09-23T08:39:04.807Z,10.45
2022-09-23T08:41:41.166Z,9.00
2022-09-23T08:44:14.116Z,8.02
2022-09-23T08:46:50.143Z,10.50
2022-09-23T08:49:23.290Z,11.05
2022-09-23T08:51:54.224Z,10.45
2022-09-23T08:54:21.454Z,9.98
2022-09-23T08:56:51.331Z,8.63
2022-09-23T08:59:21.395Z,10.07
2022-09-23T09:01:51.385Z,11.40
2022-09-23T09:04:18.688Z,12.75
2022-09-23T09:07:07.697Z,11.00
2022-09-23T09:09:52.166Z,11.68
2022-09-23T09:12:21.304Z,10.13
2022-09-23T09:14:53.312Z,9.40
2022-09-23T09:17:31.827Z,10.55
2022-09-23T09:20:05.397Z,11.27
2022-09-23T09:22:38.314Z,12.75
2022-09-23T09:25:24.194Z,10.88
2022-09-23T09:27:52.191Z,10.30
2022-09-23T09:30:19.589Z,10.93
2022-09-23T09:32:49.187Z,9.20
2022-09-23T09:35:21.374Z,11.50
2022-09-23T09:37:48.773Z,12.82
2022-09-23T09:40:17.352Z,11.05
2022-09-23T09:42:48.047Z,12.75
2022-09-23T09:45:15.076Z,11.50
2022-09-23T09:48:00.429Z,12.80
2022-09-23T09:50:43.203Z,11.65
2022-09-23T09:53:16.323Z,12.82
2022-09-23T09:55:43.494Z,9.57
2022-09-23T09:58:13.332Z,10.50
2022-09-23T10:00:45.618Z,14.25
2022-09-23T10:03:15.436Z,17.80
2022-09-23T10:05:45.326Z,12.20
2022-09-23T10:08:34.871Z,9.88
2022-09-23T10:11:01.999Z,11.43
2022-09-23T10:13:30.099Z,10.98
2022-09-23T10:15:58.508Z,13.00
2022-09-23T10:18:28.656Z,9.23
2022-09-23T10:21:03.302Z,11.05
2022-09-23T10:23:33.299Z,17.10
2022-09-23T10:26:06.214Z,10.73
2022-09-23T10:28:39.352Z,10.25
2022-09-23T10:31:10.661Z,13.50
2022-09-23T10:33:41.527Z,10.32
2022-09-23T10:36:11.716Z,8.23
2022-09-23T10:38:38.946Z,9.15
2022-09-23T10:41:30.116Z,9.30
2022-09-23T10:44:09.250Z,11.23
2022-09-23T10:46:47.435Z,10.95
2022-09-23T10:49:38.757Z,9.70
2022-09-23T10:52:06.596Z,9.35
2022-09-23T10:54:36.630Z,9.77
2022-09-23T10:57:41.576Z,9.10
2022-09-23T11:00:28.870Z,11.13
2022-09-23T11:02:56.894Z,10.82
2022-09-23T11:05:27.013Z,8.35
2022-09-23T11:08:09.182Z,8.90
2022-09-23T11:10:45.824Z,8.25
2022-09-23T11:13:33.785Z,10.32
2022-09-23T11:16:09.499Z,8.82
2022-09-23T11:18:42.661Z,6.95
2022-09-23T11:21:18.247Z,9.40
2022-09-23T11:23:48.362Z,9.23
2022-09-23T11:26:32.893Z,10.77
2022-09-23T11:29:25.991Z,8.85
2022-09-23T11:32:11.781Z,9.38
2022-09-23T11:34:57.733Z,6.80
2022-09-23T11:37:27.133Z,8.13
2022-09-23T11:40:01.062Z,7.20
2022-09-23T11:42:31.093Z,7.32
2022-09-23T11:45:19.293Z,8.48
2022-09-23T11:47:50.575Z,8.07
2022-09-23T11:50:20.661Z,8.20
2022-09-23T11:52:58.551Z,10.90
2022-09-23T11:55:27.591Z,12.40
2022-09-23T11:57:56.832Z,7.32
2022-09-23T12:00:24.977Z,8.15
2022-09-23T12:03:02.268Z,9.10
2022-09-23T12:05:39.889Z,6.97
2022-09-23T12:08:13.697Z,7.78
2022-09-23T12:10:54.165Z,9.75
2022-09-23T12:13:21.255Z,8.73
2022-09-23T12:16:03.462Z,8.70
2022-09-23T12:18:35.820Z,7.05
2022-09-23T12:21:02.891Z,5.72
2022-09-23T12:23:29.943Z,8.55
2022-09-23T12:26:00.637Z,5.90
2022-09-23T12:28:27.809Z,7.88
2022-09-23T12:30:56.987Z,7.45
2022-09-23T12:33:26.197Z,8.05
2022-09-23T12:35:54.448Z,5.03
2022-09-23T12:38:33.644Z,7.78
2022-09-23T12:41:00.993Z,5.60
2022-09-23T12:43:33.199Z,9.18
2022-09-23T12:46:19.628Z,7.93
2022-09-23T12:48:48.034Z,6.43
2022-09-23T12:51:16.886Z,6.35
2022-09-23T12:53:50.791Z,6.35
2022-09-23T12:56:23.264Z,5.97
2022-09-23T12:58:50.858Z,6.43
2022-09-23T13:01:23.038Z,6.82
2022-09-23T13:04:16.174Z,11.55
2022-09-23T13:06:58.803Z,6.68
2022-09-23T13:09:27.442Z,8.32
2022-09-23T13:11:59.788Z,8.00
2022-09-23T13:14:27.894Z,8.13
2022-09-23T13:16:56.132Z,8.40
2022-09-23T13:19:26.005Z,6.53
2022-09-23T13:22:07.911Z,8.18
2022-09-23T13:24:36.855Z,6.03
2022-09-23T13:27:06.039Z,9.77
2022-09-23T13:29:52.657Z,6.38
2022-09-23T13:32:20.710Z,11.05
2022-09-23T13:34:55.893Z,6.25
2022-09-23T13:37:24.282Z,8.02
2022-09-23T13:39:51.859Z,7.65
2022-09-23T13:42:29.166Z,7.97
2022-09-23T13:44:57.512Z,5.57
2022-09-23T13:47:25.965Z,4.80
2022-09-23T13:49:53.683Z,5.50
2022-09-23T13:52:29.815Z,5.22
2022-09-23T13:54:57.087Z,5.60
2022-09-23T13:57:29.147Z,5.55
2022-09-23T14:00:01.371Z,6.75
2022-09-23T14:02:28.695Z,6.47
2022-09-23T14:04:59.005Z,8.95
2022-09-23T14:07:26.635Z,10.27
2022-09-23T14:09:55.174Z,5.78
2022-09-23T14:12:22.475Z,6.07
2022-09-23T14:14:51.641Z,5.50
2022-09-23T14:17:19.808Z,5.65
2022-09-23T14:19:47.549Z,6.80
2022-09-23T14:22:28.031Z,4.93
2022-09-23T14:24:55.799Z,11.10
2022-09-23T14:27:30.407Z,7.35
2022-09-23T14:29:58.048Z,6.40
2022-09-23T14:32:27.477Z,7.65
2022-09-23T14:35:03.998Z,8.93
2022-09-23T14:37:52.794Z,8.18
2022-09-23T14:40:25.405Z,6.57
2022-09-23T14:42:57.403Z,7.78
2022-09-23T14:45:25.944Z,7.13
2022-09-23T14:48:22.350Z,10.25
2022-09-23T14:50:52.105Z,7.40
2022-09-23T14:53:19.377Z,5.78
2022-09-23T14:55:47.655Z,6.75
2022-09-23T14:58:17.406Z,6.45
2022-09-23T15:01:02.444Z,6.65
2022-09-23T15:03:29.803Z,11.27
2022-09-23T15:05:58.343Z,8.05
2022-09-23T15:08:27.266Z,8.07
2022-09-23T15:10:54.688Z,5.55
2022-09-23T15:13:26.500Z,6.53
2022-09-23T15:15:54.879Z,7.70
2022-09-23T15:18:23.182Z,5.22
2022-09-23T15:20:54.644Z,7.13
2022-09-23T15:23:35.782Z,7.15
2022-09-23T15:26:06.695Z,7.03
2022-09-23T15:28:33.824Z,6.47
2022-09-23T15:31:01.069Z,6.05
2022-09-23T15:33:28.207Z,6.25
2022-09-23T15:35:55.467Z,5.85
2022-09-23T15:38:22.763Z,7.50
2022-09-23T15:40:50.239Z,6.90
2022-09-23T15:43:22.567Z,8.55
2022-09-23T15:45:52.057Z,7.85
2022-09-23T15:48:26.804Z,8.68
2022-09-23T15:50:54.371Z,5.88
2022-09-23T15:53:23.089Z,7.60
2022-09-23T15:55:51.104Z,9.90
2022-09-23T15:58:22.489Z,5.03
2022-09-23T16:00:56.197Z,8.45
2022-09-23T16:03:28.282Z,8.07
2022-09-23T16:06:00.506Z,8.13
2022-09-23T16:08:27.936Z,7.25
2022-09-23T16:10:55.471Z,7.60
2022-09-23T16:13:22.998Z,5.32
2022-09-23T16:15:50.169Z,9.05
2022-09-23T16:18:17.362Z,5.53
2022-09-23T16:20:45.241Z,7.72
2022-09-23T16:23:41.052Z,6.63
2022-09-23T16:26:13.843Z,5.63
2022-09-23T16:28:40.893Z,7.90
2022-09-23T16:31:08.309Z,8.60
2022-09-23T16:33:35.637Z,9.30
2022-09-23T16:36:02.783Z,7.07
2022-09-23T16:38:30.501Z,6.57
2022-09-23T16:41:00.143Z,7.43
2022-09-23T16:43:32.672Z,5.17
2022-09-23T16:45:59.838Z,7.50
2022-09-23T16:48:27.035Z,7.10
2022-09-23T16:50:54.118Z,5.93
2022-09-23T16:53:21.190Z,7.13
2022-09-23T16:55:48.496Z,7.17
2022-09-23T16:58:15.618Z,8.63
2022-09-23T17:01:01.741Z,5.37
2022-09-23T17:03:41.261Z,6.90
2022-09-23T17:06:12.204Z,7.60
2022-09-23T17:08:43.045Z,8.37
2022-09-23T17:11:10.785Z,8.20
2022-09-23T17:13:41.011Z,7.90
2022-09-23T17:16:08.155Z,8.80
2022-09-23T17:18:35.252Z,10.13
2022-09-23T17:21:03.887Z,10.80
2022-09-23T17:23:31.787Z,6.83
2022-09-23T17:26:00.458Z,9.43
2022-09-23T17:28:27.678Z,12.23
2022-09-23T17:30:58.404Z,12.80
2022-09-23T17:33:26.042Z,10.17
2022-09-23T17:35:54.497Z,8.57
2022-09-23T17:38:27.952Z,9.97
2022-09-23T17:40:59.315Z,10.83
2022-09-23T17:43:26.431Z,13.13
2022-09-23T17:45:54.646Z,13.63
2022-09-23T17:48:22.548Z,11.33
2022-09-23T17:50:56.591Z,12.30
2022-09-23T17:53:24.203Z,11.97
2022-09-23T17:55:57.646Z,10.27
2022-09-23T17:58:25.999Z,13.87
2022-09-23T18:00:53.184Z,13.53
2022-09-23T18:03:20.354Z,12.10
2022-09-23T18:05:47.552Z,12.73
2022-09-23T18:08:14.664Z,14.73
2022-09-23T18:10:41.721Z,15.50
2022-09-23T18:13:08.839Z,10.80
2022-09-23T18:15:36.886Z,14.33
2022-09-23T18:18:04.525Z,9.77
2022-09-23T18:20:31.989Z,10.73
2022-09-23T18:22:59.200Z,7.97
2022-09-23T18:25:39.141Z,8.53
2022-09-23T18:28:06.826Z,9.50
2022-09-23T18:30:33.885Z,9.30
2022-09-23T18:33:02.075Z,7.63
2022-09-23T18:35:29.148Z,9.40
2022-09-23T18:37:56.299Z,15.07
2022-09-23T18:40:23.428Z,14.13
2022-09-23T18:42:50.787Z,10.57
2022-09-23T18:45:17.978Z,10.33
2022-09-23T18:48:03.789Z,9.53
2022-09-23T18:50:40.317Z,10.03
2022-09-23T18:53:08.192Z,11.70
2022-09-23T18:55:38.189Z,9.27
2022-09-23T18:58:07.323Z,11.27
2022-09-23T19:00:35.084Z,11.03
2022-09-23T19:03:02.600Z,11.13
2022-09-23T19:05:29.692Z,8.40
2022-09-23T19:07:57.224Z,10.13
2022-09-23T19:10:24.268Z,9.33
2022-09-23T19:12:51.432Z,10.77
2022-09-23T19:15:18.521Z,10.40
2022-09-23T19:17:45.580Z,12.70
2022-09-23T19:20:12.666Z,10.73
2022-09-23T19:22:39.973Z,11.40
2022-09-23T19:25:08.332Z,11.00
2022-09-23T19:27:35.952Z,13.10
2022-09-23T19:30:03.175Z,8.90
2022-09-23T19:32:33.327Z,14.10
2022-09-23T19:35:00.418Z,10.63
2022-09-23T19:37:27.490Z,10.33
2022-09-23T19:39:54.559Z,10.77
2022-09-23T19:42:21.927Z,13.07
2022-09-23T19:44:50.194Z,14.10
2022-09-23T19:47:17.410Z,12.13
2022-09-23T19:49:44.587Z,12.63
2022-09-23T19:52:11.691Z,12.87
2022-09-23T19:54:38.758Z,12.23
2022-09-23T19:57:06.368Z,10.83
2022-09-23T19:59:33.536Z,10.57
2022-09-23T20:02:00.662Z,12.10
2022-09-23T20:04:27.788Z,13.77
2022-09-23T20:06:54.857Z,18.73
2022-09-23T20:09:21.968Z,11.43
2022-09-23T20:11:49.580Z,14.83
2022-09-23T20:14:17.207Z,12.30
2022-09-23T20:16:45.589Z,13.47
2022-09-23T20:19:13.997Z,19.30
2022-09-23T20:21:41.095Z,15.37
2022-09-23T20:24:09.606Z,15.93
2022-09-23T20:26:55.410Z,17.83
2022-09-23T20:29:22.502Z,18.13
2022-09-23T20:31:49.609Z,13.63
2022-09-23T20:34:16.746Z,14.10
2022-09-23T20:36:44.151Z,15.27
2022-09-23T20:39:11.386Z,13.47
2022-09-23T20:41:39.268Z,16.00
2022-09-23T20:44:07.752Z,16.43
2022-09-23T20:46:35.737Z,19.43
2022-09-23T20:49:03.568Z,20.00
2022-09-23T20:51:33.289Z,17.07
2022-09-23T20:54:00.787Z,17.60
2022-09-23T20:56:28.500Z,16.13
2022-09-23T20:58:59.820Z,18.77
2022-09-23T21:01:30.051Z,14.80
2022-09-23T21:03:57.152Z,17.23
2022-09-23T21:06:26.045Z,13.57
2022-09-23T21:08:54.513Z,15.00
2022-09-23T21:11:21.962Z,13.77
2022-09-23T21:13:50.369Z,14.43
2022-09-23T21:16:18.338Z,15.83
2022-09-23T21:18:45.938Z,14.33
2022-09-23T21:21:14.372Z,12.93
2022-09-23T21:23:43.260Z,16.70
2022-09-23T21:26:14.727Z,17.33
2022-09-23T21:28:42.798Z,17.63
2022-09-23T21:31:10.934Z,16.83
2022-09-23T21:33:38.085Z,18.83
2022-09-23T21:36:06.278Z,16.50
2022-09-23T21:38:36.968Z,20.77
2022-09-23T21:41:05.388Z,17.87
2022-09-23T21:43:33.923Z,17.70
2022-09-23T21:46:02.281Z,16.20
2022-09-23T21:48:30.399Z,18.57
2022-09-23T21:50:58.611Z,16.77
2022-09-23T21:53:26.481Z,15.80
2022-09-23T21:55:53.824Z,15.00
2022-09-23T21:58:22.491Z,17.97
2022-09-23T22:00:49.654Z,17.33
2022-09-23T22:03:16.826Z,19.80
2022-09-23T22:05:43.997Z,19.23
2022-09-23T22:08:11.348Z,15.90
2022-09-23T22:10:38.756Z,15.97
2022-09-23T22:13:12.593Z,15.77
2022-09-23T22:15:40.071Z,16.97
2022-09-23T22:18:07.938Z,16.17
2022-09-23T22:20:35.007Z,16.67
2022-09-23T22:23:02.043Z,14.40
2022-09-23T22:25:29.088Z,18.10
2022-09-23T22:28:15.008Z,16.70
2022-09-23T22:31:00.969Z,16.80
2022-09-23T22:33:28.120Z,18.10
2022-09-23T22:36:01.943Z,19.50
2022-09-23T22:38:31.049Z,21.20
2022-09-23T22:40:59.705Z,16.87
2022-09-23T22:43:26.922Z,14.60
2022-09-23T22:45:54.024Z,16.87
2022-09-23T22:48:21.115Z,18.57
2022-09-23T22:50:48.235Z,18.43
2022-09-23T22:53:15.302Z,13.90
2022-09-23T22:55:42.695Z,17.17
2022-09-23T22:58:30.810Z,14.43
2022-09-23T23:00:57.484Z,12.53
2022-09-23T23:03:26.404Z,14.10
2022-09-23T23:05:57.555Z,13.97
2022-09-23T23:08:24.839Z,15.50
2022-09-23T23:10:51.898Z,16.83
2022-09-23T23:13:19.206Z,16.27
2022-09-23T23:15:46.362Z,14.83
2022-09-23T23:18:13.400Z,15.57
2022-09-23T23:20:40.477Z,15.70
2022-09-23T23:23:07.536Z,18.20
2022-09-23T23:25:34.675Z,16.27
2022-09-23T23:28:01.843Z,14.23
2022-09-23T23:30:28.927Z,19.77
2022-09-23T23:32:55.961Z,14.97
2022-09-23T23:35:23.056Z,16.87
2022-09-23T23:37:50.134Z,18.67
2022-09-23T23:40:22.580Z,17.93
2022-09-23T23:42:49.754Z,14.03
2022-09-23T23:45:17.338Z,19.03
2022-09-23T23:47:45.186Z,15.30
2022-09-23T23:50:12.262Z,17.97
2022-09-23T23:52:39.322Z,18.97
2022-09-23T23:55:06.542Z,15.70
2022-09-23T23:57:33.647Z,19.33
